sensor_id;sensor_type;location;lat;lon;timestamp;pressure;altitude;pressure_sealevel;temperature;humidity
28628;BME280;15815;46.760;19.604;2023-04-08T00:00:35;100493.50;;;5.10;94.99
28628;BME280;15815;46.760;19.604;2023-04-08T00:03:03;100493.06;;;5.08;95.56
28628;BME280;15815;46.760;19.604;2023-04-08T00:05:29;100458.78;;;4.88;95.55
28628;BME280;15815;46.760;19.604;2023-04-08T00:07:54;100472.53;;;4.96;95.68
28628;BME280;15815;46.760;19.604;2023-04-08T00:10:20;100474.94;;;4.98;95.18
28628;BME280;15815;46.760;19.604;2023-04-08T00:12:46;100447.63;;;4.88;95.01
28628;BME280;15815;46.760;19.604;2023-04-08T00:15:12;100496.38;;;5.13;95.11
28628;BME280;15815;46.760;19.604;2023-04-08T00:17:38;100450.88;;;4.90;94.88
28628;BME280;15815;46.760;19.604;2023-04-08T00:20:04;100484.63;;;5.04;95.25
28628;BME280;15815;46.760;19.604;2023-04-08T00:22:30;100488.59;;;5.03;95.25
28628;BME280;15815;46.760;19.604;2023-04-08T00:24:58;100505.09;;;5.12;95.59
28628;BME280;15815;46.760;19.604;2023-04-08T00:27:23;100498.66;;;5.08;95.03
28628;BME280;15815;46.760;19.604;2023-04-08T00:29:49;100480.09;;;4.96;95.23
28628;BME280;15815;46.760;19.604;2023-04-08T00:32:17;100484.94;;;4.99;95.23
28628;BME280;15815;46.760;19.604;2023-04-08T00:34:42;100515.16;;;5.16;95.11
28628;BME280;15815;46.760;19.604;2023-04-08T00:37:08;100503.13;;;5.12;95.04
28628;BME280;15815;46.760;19.604;2023-04-08T00:39:34;100471.47;;;4.85;94.69
28628;BME280;15815;46.760;19.604;2023-04-08T00:42:00;100481.25;;;4.95;94.82
28628;BME280;15815;46.760;19.604;2023-04-08T00:44:25;100493.19;;;4.95;94.95
28628;BME280;15815;46.760;19.604;2023-04-08T00:46:51;100485.91;;;4.91;95.07
28628;BME280;15815;46.760;19.604;2023-04-08T00:49:16;100476.66;;;4.87;95.61
28628;BME280;15815;46.760;19.604;2023-04-08T00:51:45;100498.50;;;5.01;95.70
28628;BME280;15815;46.760;19.604;2023-04-08T00:54:10;100497.25;;;4.98;95.21
28628;BME280;15815;46.760;19.604;2023-04-08T00:56:36;100494.69;;;4.93;95.33
28628;BME280;15815;46.760;19.604;2023-04-08T00:59:02;100500.47;;;5.00;95.36
28628;BME280;15815;46.760;19.604;2023-04-08T01:04:31;100518.28;;;4.95;95.83
28628;BME280;15815;46.760;19.604;2023-04-08T01:09:34;100493.81;;;4.89;95.69
28628;BME280;15815;46.760;19.604;2023-04-08T01:12:05;100485.94;;;4.75;96.09
28628;BME280;15815;46.760;19.604;2023-04-08T01:14:34;100484.69;;;4.73;96.03
28628;BME280;15815;46.760;19.604;2023-04-08T01:17:03;100481.63;;;4.78;95.89
28628;BME280;15815;46.760;19.604;2023-04-08T01:19:33;100491.31;;;4.84;95.30
28628;BME280;15815;46.760;19.604;2023-04-08T01:22:42;100482.06;;;4.64;95.53
28628;BME280;15815;46.760;19.604;2023-04-08T01:25:37;100508.03;;;4.84;96.16
28628;BME280;15815;46.760;19.604;2023-04-08T01:28:06;100511.34;;;4.89;95.98
28628;BME280;15815;46.760;19.604;2023-04-08T01:30:33;100496.34;;;4.78;95.83
28628;BME280;15815;46.760;19.604;2023-04-08T01:33:00;100519.34;;;4.91;95.90
28628;BME280;15815;46.760;19.604;2023-04-08T01:35:27;100491.78;;;4.70;95.56
28628;BME280;15815;46.760;19.604;2023-04-08T01:37:53;100505.97;;;4.81;95.80
28628;BME280;15815;46.760;19.604;2023-04-08T01:40:20;100489.63;;;4.63;95.76
28628;BME280;15815;46.760;19.604;2023-04-08T01:42:47;100492.16;;;4.69;95.58
28628;BME280;15815;46.760;19.604;2023-04-08T01:45:17;100518.00;;;4.85;95.98
28628;BME280;15815;46.760;19.604;2023-04-08T01:47:44;100499.44;;;4.73;96.24
28628;BME280;15815;46.760;19.604;2023-04-08T01:50:11;100491.16;;;4.77;96.25
28628;BME280;15815;46.760;19.604;2023-04-08T01:52:39;100492.78;;;4.78;95.59
28628;BME280;15815;46.760;19.604;2023-04-08T01:55:05;100506.84;;;4.85;95.74
28628;BME280;15815;46.760;19.604;2023-04-08T01:57:34;100500.41;;;4.81;95.96
28628;BME280;15815;46.760;19.604;2023-04-08T02:00:05;100489.38;;;4.69;95.97
28628;BME280;15815;46.760;19.604;2023-04-08T02:02:35;100483.97;;;4.76;95.56
28628;BME280;15815;46.760;19.604;2023-04-08T02:05:01;100489.53;;;4.76;95.88
28628;BME280;15815;46.760;19.604;2023-04-08T02:07:28;100496.19;;;4.71;95.57
28628;BME280;15815;46.760;19.604;2023-04-08T02:09:55;100486.94;;;4.67;95.93
28628;BME280;15815;46.760;19.604;2023-04-08T02:12:21;100494.22;;;4.72;95.70
28628;BME280;15815;46.760;19.604;2023-04-08T02:14:46;100495.38;;;4.71;95.79
28628;BME280;15815;46.760;19.604;2023-04-08T02:17:18;100498.53;;;4.69;95.68
28628;BME280;15815;46.760;19.604;2023-04-08T02:19:47;100502.56;;;4.72;95.79
28628;BME280;15815;46.760;19.604;2023-04-08T02:22:49;100514.69;;;4.79;95.89
28628;BME280;15815;46.760;19.604;2023-04-08T02:25:22;100486.75;;;4.60;95.89
28628;BME280;15815;46.760;19.604;2023-04-08T02:27:49;100489.63;;;4.63;96.14
28628;BME280;15815;46.760;19.604;2023-04-08T02:30:17;100498.41;;;4.65;95.67
28628;BME280;15815;46.760;19.604;2023-04-08T02:32:44;100478.59;;;4.51;96.56
28628;BME280;15815;46.760;19.604;2023-04-08T02:35:11;100510.94;;;4.72;96.54
28628;BME280;15815;46.760;19.604;2023-04-08T02:37:37;100509.22;;;4.67;96.64
28628;BME280;15815;46.760;19.604;2023-04-08T02:40:03;100472.84;;;4.44;96.51
28628;BME280;15815;46.760;19.604;2023-04-08T02:42:29;100503.09;;;4.61;97.34
28628;BME280;15815;46.760;19.604;2023-04-08T02:44:56;100512.34;;;4.65;97.03
28628;BME280;15815;46.760;19.604;2023-04-08T02:47:24;100483.06;;;4.56;96.53
28628;BME280;15815;46.760;19.604;2023-04-08T02:49:50;100466.41;;;4.40;96.56
28628;BME280;15815;46.760;19.604;2023-04-08T02:52:15;100455.50;;;4.35;97.36
28628;BME280;15815;46.760;19.604;2023-04-08T02:54:41;100470.78;;;4.41;97.22
28628;BME280;15815;46.760;19.604;2023-04-08T02:57:06;100488.03;;;4.47;97.72
28628;BME280;15815;46.760;19.604;2023-04-08T02:59:34;100481.28;;;4.48;97.03
28628;BME280;15815;46.760;19.604;2023-04-08T03:02:00;100496.91;;;4.52;97.02
28628;BME280;15815;46.760;19.604;2023-04-08T03:04:25;100481.22;;;4.44;96.90
28628;BME280;15815;46.760;19.604;2023-04-08T03:06:51;100480.22;;;4.52;96.56
28628;BME280;15815;46.760;19.604;2023-04-08T03:09:18;100490.78;;;4.62;96.24
28628;BME280;15815;46.760;19.604;2023-04-08T03:11:46;100489.91;;;4.58;96.52
28628;BME280;15815;46.760;19.604;2023-04-08T03:14:11;100493.84;;;4.57;96.86
28628;BME280;15815;46.760;19.604;2023-04-08T03:16:37;100506.59;;;4.58;96.98
28628;BME280;15815;46.760;19.604;2023-04-08T03:19:02;100468.81;;;4.42;96.95
28628;BME280;15815;46.760;19.604;2023-04-08T03:21:28;100480.22;;;4.52;96.11
28628;BME280;15815;46.760;19.604;2023-04-08T03:23:54;100494.66;;;4.58;96.32
28628;BME280;15815;46.760;19.604;2023-04-08T03:26:19;100513.72;;;4.72;96.45
28628;BME280;15815;46.760;19.604;2023-04-08T03:28:45;100477.25;;;4.45;96.45
28628;BME280;15815;46.760;19.604;2023-04-08T03:31:17;100504.00;;;4.65;95.95
28628;BME280;15815;46.760;19.604;2023-04-08T03:33:42;100472.41;;;4.42;96.53
28628;BME280;15815;46.760;19.604;2023-04-08T03:36:11;100471.59;;;4.42;96.42
28628;BME280;15815;46.760;19.604;2023-04-08T03:38:37;100484.00;;;4.44;96.34
28628;BME280;15815;46.760;19.604;2023-04-08T03:41:03;100511.28;;;4.54;96.44
28628;BME280;15815;46.760;19.604;2023-04-08T03:43:29;100500.94;;;4.55;96.27
28628;BME280;15815;46.760;19.604;2023-04-08T03:45:55;100515.59;;;4.68;96.15
28628;BME280;15815;46.760;19.604;2023-04-08T03:48:24;100522.78;;;4.69;96.27
28628;BME280;15815;46.760;19.604;2023-04-08T03:50:49;100503.66;;;4.51;96.46
28628;BME280;15815;46.760;19.604;2023-04-08T03:53:15;100529.97;;;4.70;96.12
28628;BME280;15815;46.760;19.604;2023-04-08T03:55:41;100495.66;;;4.50;96.42
28628;BME280;15815;46.760;19.604;2023-04-08T03:58:06;100508.03;;;4.52;96.14
28628;BME280;15815;46.760;19.604;2023-04-08T04:00:32;100497.19;;;4.47;96.22
28628;BME280;15815;46.760;19.604;2023-04-08T04:02:57;100530.69;;;4.67;96.17
28628;BME280;15815;46.760;19.604;2023-04-08T04:05:24;100539.66;;;4.76;96.13
28628;BME280;15815;46.760;19.604;2023-04-08T04:07:49;100517.09;;;4.65;95.99
28628;BME280;15815;46.760;19.604;2023-04-08T04:10:25;100514.22;;;4.61;95.97
28628;BME280;15815;46.760;19.604;2023-04-08T04:12:51;100517.38;;;4.60;95.96
28628;BME280;15815;46.760;19.604;2023-04-08T04:15:16;100517.28;;;4.56;95.99
28628;BME280;15815;46.760;19.604;2023-04-08T04:17:46;100537.88;;;4.68;96.25
28628;BME280;15815;46.760;19.604;2023-04-08T04:20:16;100502.13;;;4.54;96.17
28628;BME280;15815;46.760;19.604;2023-04-08T04:22:42;100531.50;;;4.67;95.92
28628;BME280;15815;46.760;19.604;2023-04-08T04:25:08;100520.44;;;4.55;96.29
28628;BME280;15815;46.760;19.604;2023-04-08T04:27:33;100551.44;;;4.69;96.15
28628;BME280;15815;46.760;19.604;2023-04-08T04:29:59;100534.63;;;4.65;95.90
28628;BME280;15815;46.760;19.604;2023-04-08T04:32:25;100520.53;;;4.58;95.81
28628;BME280;15815;46.760;19.604;2023-04-08T04:34:51;100536.06;;;4.59;95.90
28628;BME280;15815;46.760;19.604;2023-04-08T04:37:16;100526.81;;;4.55;95.99
28628;BME280;15815;46.760;19.604;2023-04-08T04:39:46;100563.47;;;4.73;96.61
28628;BME280;15815;46.760;19.604;2023-04-08T04:42:12;100519.28;;;4.40;97.36
28628;BME280;15815;46.760;19.604;2023-04-08T04:44:45;100532.47;;;4.59;97.12
28628;BME280;15815;46.760;19.604;2023-04-08T04:47:11;100545.75;;;4.65;96.64
28628;BME280;15815;46.760;19.604;2023-04-08T04:49:36;100552.03;;;4.62;96.81
28628;BME280;15815;46.760;19.604;2023-04-08T04:52:03;100523.94;;;4.52;96.64
28628;BME280;15815;46.760;19.604;2023-04-08T04:54:29;100554.59;;;4.68;96.67
28628;BME280;15815;46.760;19.604;2023-04-08T04:56:55;100534.44;;;4.58;97.01
28628;BME280;15815;46.760;19.604;2023-04-08T04:59:22;100560.16;;;4.68;96.83
28628;BME280;15815;46.760;19.604;2023-04-08T05:01:48;100556.81;;;4.62;96.89
28628;BME280;15815;46.760;19.604;2023-04-08T05:04:14;100532.19;;;4.48;96.76
28628;BME280;15815;46.760;19.604;2023-04-08T05:06:41;100580.00;;;4.82;96.59
28628;BME280;15815;46.760;19.604;2023-04-08T05:09:06;100554.81;;;4.62;96.26
28628;BME280;15815;46.760;19.604;2023-04-08T05:11:32;100561.66;;;4.65;96.59
28628;BME280;15815;46.760;19.604;2023-04-08T05:14:01;100570.13;;;4.69;96.71
28628;BME280;15815;46.760;19.604;2023-04-08T05:16:30;100560.56;;;4.54;96.93
28628;BME280;15815;46.760;19.604;2023-04-08T05:18:56;100577.81;;;4.59;96.65
28628;BME280;15815;46.760;19.604;2023-04-08T05:21:21;100574.59;;;4.57;97.15
28628;BME280;15815;46.760;19.604;2023-04-08T05:23:51;100579.69;;;4.55;97.47
28628;BME280;15815;46.760;19.604;2023-04-08T05:26:21;100576.56;;;4.57;97.03
28628;BME280;15815;46.760;19.604;2023-04-08T05:28:49;100565.59;;;4.48;96.64
28628;BME280;15815;46.760;19.604;2023-04-08T05:31:17;100593.44;;;4.64;96.99
28628;BME280;15815;46.760;19.604;2023-04-08T05:33:43;100564.72;;;4.44;97.21
28628;BME280;15815;46.760;19.604;2023-04-08T05:36:12;100588.78;;;4.52;97.24
28628;BME280;15815;46.760;19.604;2023-04-08T05:38:39;100581.13;;;4.49;97.39
28628;BME280;15815;46.760;19.604;2023-04-08T05:41:05;100584.09;;;4.56;97.15
28628;BME280;15815;46.760;19.604;2023-04-08T05:43:32;100588.31;;;4.50;96.80
28628;BME280;15815;46.760;19.604;2023-04-08T05:45:58;100588.41;;;4.54;97.18
28628;BME280;15815;46.760;19.604;2023-04-08T05:48:23;100594.06;;;4.57;97.28
28628;BME280;15815;46.760;19.604;2023-04-08T05:50:49;100617.63;;;4.76;97.30
28628;BME280;15815;46.760;19.604;2023-04-08T05:53:15;100591.03;;;4.62;97.17
28628;BME280;15815;46.760;19.604;2023-04-08T05:55:41;100587.78;;;4.60;97.26
28628;BME280;15815;46.760;19.604;2023-04-08T05:58:07;100601.19;;;4.71;97.51
28628;BME280;15815;46.760;19.604;2023-04-08T06:00:36;100606.94;;;4.78;96.97
28628;BME280;15815;46.760;19.604;2023-04-08T06:03:01;100611.63;;;4.74;97.49
28628;BME280;15815;46.760;19.604;2023-04-08T06:05:30;100596.00;;;4.69;97.51
28628;BME280;15815;46.760;19.604;2023-04-08T06:07:55;100610.63;;;4.82;97.54
28628;BME280;15815;46.760;19.604;2023-04-08T06:10:23;100590.97;;;4.75;97.71
28628;BME280;15815;46.760;19.604;2023-04-08T06:12:49;100610.19;;;4.80;97.08
28628;BME280;15815;46.760;19.604;2023-04-08T06:15:14;100600.13;;;4.75;97.71
28628;BME280;15815;46.760;19.604;2023-04-08T06:17:41;100626.47;;;4.93;98.28
28628;BME280;15815;46.760;19.604;2023-04-08T06:20:07;100589.63;;;4.69;98.14
28628;BME280;15815;46.760;19.604;2023-04-08T06:22:33;100627.53;;;5.05;98.83
28628;BME280;15815;46.760;19.604;2023-04-08T06:24:58;100634.19;;;5.00;98.00
28628;BME280;15815;46.760;19.604;2023-04-08T06:27:24;100612.63;;;4.97;98.35
28628;BME280;15815;46.760;19.604;2023-04-08T06:29:49;100611.81;;;4.96;98.99
28628;BME280;15815;46.760;19.604;2023-04-08T06:32:15;100605.88;;;4.98;98.78
28628;BME280;15815;46.760;19.604;2023-04-08T06:34:40;100596.31;;;5.15;98.84
28628;BME280;15815;46.760;19.604;2023-04-08T06:37:06;100603.06;;;5.30;98.58
28628;BME280;15815;46.760;19.604;2023-04-08T06:39:32;100640.19;;;5.49;97.95
28628;BME280;15815;46.760;19.604;2023-04-08T06:41:58;100643.13;;;5.41;98.20
28628;BME280;15815;46.760;19.604;2023-04-08T06:44:23;100647.75;;;5.33;99.12
28628;BME280;15815;46.760;19.604;2023-04-08T06:46:49;100655.00;;;5.38;98.89
28628;BME280;15815;46.760;19.604;2023-04-08T06:49:14;100629.75;;;5.31;98.68
28628;BME280;15815;46.760;19.604;2023-04-08T06:51:40;100630.13;;;5.29;98.02
28628;BME280;15815;46.760;19.604;2023-04-08T06:54:06;100632.47;;;5.27;98.19
28628;BME280;15815;46.760;19.604;2023-04-08T06:56:31;100634.25;;;5.19;97.56
28628;BME280;15815;46.760;19.604;2023-04-08T06:58:58;100637.75;;;5.32;98.15
28628;BME280;15815;46.760;19.604;2023-04-08T07:01:23;100641.63;;;5.27;98.18
28628;BME280;15815;46.760;19.604;2023-04-08T07:03:55;100625.28;;;5.26;97.93
28628;BME280;15815;46.760;19.604;2023-04-08T07:06:24;100646.03;;;5.28;98.36
28628;BME280;15815;46.760;19.604;2023-04-08T07:08:49;100649.06;;;5.39;98.37
28628;BME280;15815;46.760;19.604;2023-04-08T07:11:16;100649.72;;;5.48;97.95
28628;BME280;15815;46.760;19.604;2023-04-08T07:13:41;100651.22;;;5.46;98.14
28628;BME280;15815;46.760;19.604;2023-04-08T07:16:07;100656.78;;;5.46;98.52
28628;BME280;15815;46.760;19.604;2023-04-08T07:18:32;100647.25;;;5.47;99.04
28628;BME280;15815;46.760;19.604;2023-04-08T07:20:58;100648.91;;;5.48;98.35
28628;BME280;15815;46.760;19.604;2023-04-08T07:23:23;100659.94;;;5.60;98.37
28628;BME280;15815;46.760;19.604;2023-04-08T07:25:50;100649.66;;;5.64;98.54
28628;BME280;15815;46.760;19.604;2023-04-08T07:28:16;100642.19;;;5.68;98.45
28628;BME280;15815;46.760;19.604;2023-04-08T07:30:47;100639.91;;;5.74;98.11
28628;BME280;15815;46.760;19.604;2023-04-08T07:33:20;100667.81;;;5.89;97.83
28628;BME280;15815;46.760;19.604;2023-04-08T07:35:46;100669.31;;;6.03;97.64
28628;BME280;15815;46.760;19.604;2023-04-08T07:38:11;100638.56;;;5.83;97.38
28628;BME280;15815;46.760;19.604;2023-04-08T07:40:37;100631.38;;;5.82;96.97
28628;BME280;15815;46.760;19.604;2023-04-08T07:43:02;100655.56;;;5.94;96.64
28628;BME280;15815;46.760;19.604;2023-04-08T07:45:28;100674.75;;;6.15;97.00
28628;BME280;15815;46.760;19.604;2023-04-08T07:47:58;100674.75;;;6.15;96.38
28628;BME280;15815;46.760;19.604;2023-04-08T07:50:23;100672.09;;;6.22;96.25
28628;BME280;15815;46.760;19.604;2023-04-08T07:52:49;100688.66;;;6.50;96.47
28628;BME280;15815;46.760;19.604;2023-04-08T07:55:18;100664.16;;;6.24;95.20
28628;BME280;15815;46.760;19.604;2023-04-08T07:57:44;100679.56;;;6.34;95.31
28628;BME280;15815;46.760;19.604;2023-04-08T08:00:09;100666.53;;;6.22;94.87
28628;BME280;15815;46.760;19.604;2023-04-08T08:02:35;100673.91;;;6.30;94.48
28628;BME280;15815;46.760;19.604;2023-04-08T08:05:01;100668.06;;;6.19;93.94
28628;BME280;15815;46.760;19.604;2023-04-08T08:07:26;100687.63;;;6.39;93.91
28628;BME280;15815;46.760;19.604;2023-04-08T08:09:53;100688.50;;;6.43;94.27
28628;BME280;15815;46.760;19.604;2023-04-08T08:12:18;100683.28;;;6.41;93.79
28628;BME280;15815;46.760;19.604;2023-04-08T08:14:44;100664.03;;;6.17;93.02
28628;BME280;15815;46.760;19.604;2023-04-08T08:17:09;100661.75;;;6.23;93.67
28628;BME280;15815;46.760;19.604;2023-04-08T08:19:35;100673.66;;;6.39;93.60
28628;BME280;15815;46.760;19.604;2023-04-08T08:22:05;100687.31;;;6.44;94.29
28628;BME280;15815;46.760;19.604;2023-04-08T08:24:30;100677.38;;;6.27;92.95
28628;BME280;15815;46.760;19.604;2023-04-08T08:26:57;100659.63;;;6.16;92.99
28628;BME280;15815;46.760;19.604;2023-04-08T08:29:22;100664.03;;;6.36;94.26
28628;BME280;15815;46.760;19.604;2023-04-08T08:31:48;100670.38;;;6.33;93.25
28628;BME280;15815;46.760;19.604;2023-04-08T08:34:14;100675.22;;;6.36;91.96
28628;BME280;15815;46.760;19.604;2023-04-08T08:36:39;100676.81;;;6.37;93.00
28628;BME280;15815;46.760;19.604;2023-04-08T08:39:05;100681.38;;;6.45;91.68
28628;BME280;15815;46.760;19.604;2023-04-08T08:41:34;100688.44;;;6.59;91.41
28628;BME280;15815;46.760;19.604;2023-04-08T08:44:04;100711.28;;;6.64;91.09
28628;BME280;15815;46.760;19.604;2023-04-08T08:46:30;100690.75;;;6.76;91.17
28628;BME280;15815;46.760;19.604;2023-04-08T08:48:56;100662.84;;;6.57;91.48
28628;BME280;15815;46.760;19.604;2023-04-08T08:51:21;100681.88;;;6.51;90.29
28628;BME280;15815;46.760;19.604;2023-04-08T08:53:48;100684.38;;;6.56;90.30
28628;BME280;15815;46.760;19.604;2023-04-08T08:56:14;100671.81;;;6.46;90.18
28628;BME280;15815;46.760;19.604;2023-04-08T08:58:39;100682.75;;;6.55;90.59
28628;BME280;15815;46.760;19.604;2023-04-08T09:04:19;100714.50;;;6.86;89.66
28628;BME280;15815;46.760;19.604;2023-04-08T09:06:49;100699.94;;;6.96;90.52
28628;BME280;15815;46.760;19.604;2023-04-08T09:09:20;100681.16;;;6.96;91.34
28628;BME280;15815;46.760;19.604;2023-04-08T09:11:46;100711.34;;;7.10;90.52
28628;BME280;15815;46.760;19.604;2023-04-08T09:14:22;100697.38;;;7.10;88.63
28628;BME280;15815;46.760;19.604;2023-04-08T09:16:49;100706.09;;;7.28;90.17
28628;BME280;15815;46.760;19.604;2023-04-08T09:19:14;100727.22;;;7.48;90.05
28628;BME280;15815;46.760;19.604;2023-04-08T09:21:40;100716.47;;;7.27;88.65
28628;BME280;15815;46.760;19.604;2023-04-08T09:26:51;100728.41;;;7.24;88.73
28628;BME280;15815;46.760;19.604;2023-04-08T09:29:27;100741.00;;;7.37;88.19
28628;BME280;15815;46.760;19.604;2023-04-08T09:31:57;100719.94;;;7.21;87.50
28628;BME280;15815;46.760;19.604;2023-04-08T09:34:25;100745.31;;;7.54;86.68
28628;BME280;15815;46.760;19.604;2023-04-08T09:36:52;100721.91;;;7.66;86.22
28628;BME280;15815;46.760;19.604;2023-04-08T09:39:24;100719.78;;;7.82;85.15
28628;BME280;15815;46.760;19.604;2023-04-08T09:41:53;100724.94;;;8.06;84.88
28628;BME280;15815;46.760;19.604;2023-04-08T09:44:28;100719.31;;;8.03;85.75
28628;BME280;15815;46.760;19.604;2023-04-08T09:52:19;100748.53;;;8.05;84.75
28628;BME280;15815;46.760;19.604;2023-04-08T09:54:54;100726.03;;;7.98;84.01
28628;BME280;15815;46.760;19.604;2023-04-08T10:00:03;100724.34;;;7.94;82.20
28628;BME280;15815;46.760;19.604;2023-04-08T10:02:33;100722.53;;;8.05;82.43
28628;BME280;15815;46.760;19.604;2023-04-08T10:05:01;100754.94;;;8.32;81.35
28628;BME280;15815;46.760;19.604;2023-04-08T10:07:28;100734.03;;;8.26;80.27
28628;BME280;15815;46.760;19.604;2023-04-08T10:09:56;100730.16;;;8.34;81.92
28628;BME280;15815;46.760;19.604;2023-04-08T10:12:22;100725.25;;;8.28;81.01
28628;BME280;15815;46.760;19.604;2023-04-08T10:17:47;100730.09;;;8.31;82.12
28628;BME280;15815;46.760;19.604;2023-04-08T10:23:03;100758.53;;;8.06;82.88
28628;BME280;15815;46.760;19.604;2023-04-08T10:25:41;100758.50;;;8.03;81.83
28628;BME280;15815;46.760;19.604;2023-04-08T10:30:51;100738.44;;;7.74;83.97
28628;BME280;15815;46.760;19.604;2023-04-08T10:38:25;100743.28;;;7.78;82.45
28628;BME280;15815;46.760;19.604;2023-04-08T10:40:53;100715.03;;;7.60;83.22
28628;BME280;15815;46.760;19.604;2023-04-08T10:43:18;100745.28;;;7.77;84.38
28628;BME280;15815;46.760;19.604;2023-04-08T10:45:44;100742.75;;;7.68;82.85
28628;BME280;15815;46.760;19.604;2023-04-08T10:48:18;100733.91;;;7.66;83.35
28628;BME280;15815;46.760;19.604;2023-04-08T10:51:04;100742.00;;;7.71;83.30
28628;BME280;15815;46.760;19.604;2023-04-08T10:53:31;100741.75;;;7.57;82.89
28628;BME280;15815;46.760;19.604;2023-04-08T10:56:11;100737.16;;;7.68;84.34
28628;BME280;15815;46.760;19.604;2023-04-08T10:58:52;100756.53;;;7.81;84.11
28628;BME280;15815;46.760;19.604;2023-04-08T11:01:18;100741.50;;;7.66;83.49
28628;BME280;15815;46.760;19.604;2023-04-08T11:03:45;100720.88;;;7.51;83.68
28628;BME280;15815;46.760;19.604;2023-04-08T11:06:13;100722.44;;;7.49;84.58
28628;BME280;15815;46.760;19.604;2023-04-08T11:08:40;100761.22;;;7.73;84.17
28628;BME280;15815;46.760;19.604;2023-04-08T11:11:13;100753.06;;;7.64;84.81
28628;BME280;15815;46.760;19.604;2023-04-08T11:13:44;100730.63;;;7.38;84.47
28628;BME280;15815;46.760;19.604;2023-04-08T11:16:10;100766.25;;;7.64;84.80
28628;BME280;15815;46.760;19.604;2023-04-08T11:18:39;100750.88;;;7.31;84.10
28628;BME280;15815;46.760;19.604;2023-04-08T11:21:09;100735.13;;;7.42;84.60
28628;BME280;15815;46.760;19.604;2023-04-08T11:23:38;100774.72;;;7.67;85.15
28628;BME280;15815;46.760;19.604;2023-04-08T11:26:04;100745.13;;;7.43;85.29
28628;BME280;15815;46.760;19.604;2023-04-08T11:28:30;100751.00;;;7.38;84.51
28628;BME280;15815;46.760;19.604;2023-04-08T11:30:56;100748.91;;;7.32;85.72
28628;BME280;15815;46.760;19.604;2023-04-08T11:33:24;100746.47;;;7.30;84.68
28628;BME280;15815;46.760;19.604;2023-04-08T11:35:50;100751.38;;;7.37;85.78
28628;BME280;15815;46.760;19.604;2023-04-08T11:38:23;100772.84;;;7.52;85.62
28628;BME280;15815;46.760;19.604;2023-04-08T11:40:52;100752.03;;;7.50;85.85
28628;BME280;15815;46.760;19.604;2023-04-08T11:43:18;100743.63;;;7.50;85.41
28628;BME280;15815;46.760;19.604;2023-04-08T11:45:44;100748.16;;;7.58;85.23
28628;BME280;15815;46.760;19.604;2023-04-08T11:48:11;100743.78;;;7.60;85.42
28628;BME280;15815;46.760;19.604;2023-04-08T11:50:41;100755.38;;;7.59;83.88
28628;BME280;15815;46.760;19.604;2023-04-08T11:53:17;100748.31;;;7.42;83.35
28628;BME280;15815;46.760;19.604;2023-04-08T11:55:46;100727.72;;;7.31;83.77
28628;BME280;15815;46.760;19.604;2023-04-08T11:58:21;100729.19;;;7.25;84.16
28628;BME280;15815;46.760;19.604;2023-04-08T12:00:50;100730.69;;;7.19;85.33
28628;BME280;15815;46.760;19.604;2023-04-08T12:03:16;100747.72;;;7.33;84.81
28628;BME280;15815;46.760;19.604;2023-04-08T12:05:42;100734.06;;;7.28;85.62
28628;BME280;15815;46.760;19.604;2023-04-08T12:08:08;100746.53;;;7.34;85.09
28628;BME280;15815;46.760;19.604;2023-04-08T12:10:33;100735.78;;;7.36;85.73
28628;BME280;15815;46.760;19.604;2023-04-08T12:12:59;100750.53;;;7.56;84.63
28628;BME280;15815;46.760;19.604;2023-04-08T12:15:24;100748.16;;;7.58;85.12
28628;BME280;15815;46.760;19.604;2023-04-08T12:17:50;100759.41;;;7.61;85.23
28628;BME280;15815;46.760;19.604;2023-04-08T12:20:16;100755.13;;;7.67;85.07
28628;BME280;15815;46.760;19.604;2023-04-08T12:22:41;100743.94;;;7.67;84.83
28628;BME280;15815;46.760;19.604;2023-04-08T12:25:07;100746.75;;;7.67;84.60
28628;BME280;15815;46.760;19.604;2023-04-08T12:27:33;100748.91;;;7.78;84.71
28628;BME280;15815;46.760;19.604;2023-04-08T12:29:59;100753.66;;;8.00;83.83
28628;BME280;15815;46.760;19.604;2023-04-08T12:32:25;100730.66;;;7.87;82.42
28628;BME280;15815;46.760;19.604;2023-04-08T12:34:51;100734.25;;;7.88;82.48
28628;BME280;15815;46.760;19.604;2023-04-08T12:37:17;100742.78;;;7.95;82.20
28628;BME280;15815;46.760;19.604;2023-04-08T12:39:42;100729.13;;;7.93;82.28
28628;BME280;15815;46.760;19.604;2023-04-08T12:42:10;100741.38;;;8.08;81.65
28628;BME280;15815;46.760;19.604;2023-04-08T12:44:36;100730.16;;;8.08;83.17
28628;BME280;15815;46.760;19.604;2023-04-08T12:47:01;100729.28;;;8.30;83.54
28628;BME280;15815;46.760;19.604;2023-04-08T12:49:27;100717.25;;;8.26;81.72
28628;BME280;15815;46.760;19.604;2023-04-08T12:51:54;100757.63;;;8.52;82.14
28628;BME280;15815;46.760;19.604;2023-04-08T12:54:20;100725.09;;;8.17;81.10
28628;BME280;15815;46.760;19.604;2023-04-08T12:56:46;100729.31;;;8.04;80.24
28628;BME280;15815;46.760;19.604;2023-04-08T12:59:11;100732.09;;;8.04;79.92
28628;BME280;15815;46.760;19.604;2023-04-08T13:01:37;100750.72;;;8.19;78.71
28628;BME280;15815;46.760;19.604;2023-04-08T13:04:02;100741.38;;;8.08;80.25
28628;BME280;15815;46.760;19.604;2023-04-08T13:06:29;100731.34;;;8.07;80.95
28628;BME280;15815;46.760;19.604;2023-04-08T13:08:54;100752.41;;;8.24;82.79
28628;BME280;15815;46.760;19.604;2023-04-08T13:11:20;100746.63;;;8.13;81.38
28628;BME280;15815;46.760;19.604;2023-04-08T13:13:46;100728.97;;;8.09;82.15
28628;BME280;15815;46.760;19.604;2023-04-08T13:16:12;100723.25;;;7.98;81.11
28628;BME280;15815;46.760;19.604;2023-04-08T13:18:38;100729.84;;;8.13;81.70
28628;BME280;15815;46.760;19.604;2023-04-08T13:21:07;100751.91;;;8.18;79.92
28628;BME280;15815;46.760;19.604;2023-04-08T13:23:33;100729.50;;;7.92;79.89